sensor_id;sensor_type;location;lat;lon;timestamp;pressure;altitude;pressure_sealevel;temperature;humidity
49194;BME280;35029;50.804;12.866;2022-12-18T00:01:17;99083.41;;;-10.50;83.97
49194;BME280;35029;50.804;12.866;2022-12-18T00:03:44;99089.38;;;-10.51;84.41
49194;BME280;35029;50.804;12.866;2022-12-18T00:06:10;99086.75;;;-10.47;84.07
49194;BME280;35029;50.804;12.866;2022-12-18T00:08:35;99075.09;;;-10.62;83.84
49194;BME280;35029;50.804;12.866;2022-12-18T00:11:07;99093.03;;;-10.63;84.32
49194;BME280;35029;50.804;12.866;2022-12-18T00:13:34;99076.06;;;-10.69;84.32
49194;BME280;35029;50.804;12.866;2022-12-18T00:16:05;99084.44;;;-10.61;84.87
49194;BME280;35029;50.804;12.866;2022-12-18T00:18:35;99084.28;;;-10.53;83.91
49194;BME280;35029;50.804;12.866;2022-12-18T00:21:04;99087.91;;;-10.62;83.72
49194;BME280;35029;50.804;12.866;2022-12-18T00:23:30;99102.41;;;-10.62;84.15
49194;BME280;35029;50.804;12.866;2022-12-18T00:26:00;99094.75;;;-10.64;83.15
49194;BME280;35029;50.804;12.866;2022-12-18T00:28:26;99096.59;;;-10.71;84.18
49194;BME280;35029;50.804;12.866;2022-12-18T00:31:06;99100.00;;;-10.72;84.32
49194;BME280;35029;50.804;12.866;2022-12-18T00:33:33;99076.38;;;-10.86;84.05
49194;BME280;35029;50.804;12.866;2022-12-18T00:38:28;99096.75;;;-10.80;85.12
49194;BME280;35029;50.804;12.866;2022-12-18T00:40:54;99092.59;;;-10.85;84.52
49194;BME280;35029;50.804;12.866;2022-12-18T00:43:20;99094.34;;;-10.88;84.61
49194;BME280;35029;50.804;12.866;2022-12-18T00:45:45;99060.56;;;-11.07;83.94
49194;BME280;35029;50.804;12.866;2022-12-18T00:48:11;99098.81;;;-10.97;84.60
49194;BME280;35029;50.804;12.866;2022-12-18T00:50:36;99108.00;;;-10.87;85.06
49194;BME280;35029;50.804;12.866;2022-12-18T00:53:02;99101.16;;;-10.87;84.35
49194;BME280;35029;50.804;12.866;2022-12-18T00:55:27;99111.41;;;-10.88;83.63
49194;BME280;35029;50.804;12.866;2022-12-18T00:57:53;99109.66;;;-10.84;83.77
49194;BME280;35029;50.804;12.866;2022-12-18T01:00:19;99109.75;;;-10.89;83.44
49194;BME280;35029;50.804;12.866;2022-12-18T01:02:44;99115.06;;;-11.01;83.04
49194;BME280;35029;50.804;12.866;2022-12-18T01:05:14;99120.25;;;-11.05;84.17
49194;BME280;35029;50.804;12.866;2022-12-18T01:07:40;99100.72;;;-11.10;84.37
49194;BME280;35029;50.804;12.866;2022-12-18T01:10:08;99104.13;;;-11.10;84.11
49194;BME280;35029;50.804;12.866;2022-12-18T01:12:35;99100.75;;;-11.12;84.41
49194;BME280;35029;50.804;12.866;2022-12-18T01:15:02;99103.34;;;-11.13;84.33
49194;BME280;35029;50.804;12.866;2022-12-18T01:17:28;99110.19;;;-11.15;84.44
49194;BME280;35029;50.804;12.866;2022-12-18T01:19:54;99116.13;;;-11.12;84.20
49194;BME280;35029;50.804;12.866;2022-12-18T01:22:19;99109.31;;;-11.14;83.79
49194;BME280;35029;50.804;12.866;2022-12-18T01:24:45;99110.03;;;-11.06;83.81
49194;BME280;35029;50.804;12.866;2022-12-18T01:27:10;99110.78;;;-10.99;83.00
49194;BME280;35029;50.804;12.866;2022-12-18T01:29:36;99122.94;;;-11.11;81.68
49194;BME280;35029;50.804;12.866;2022-12-18T01:32:02;99132.50;;;-11.22;81.89
49194;BME280;35029;50.804;12.866;2022-12-18T01:34:30;99119.69;;;-11.20;82.67
49194;BME280;35029;50.804;12.866;2022-12-18T01:36:56;99126.56;;;-11.24;83.29
49194;BME280;35029;50.804;12.866;2022-12-18T01:39:22;99127.53;;;-11.33;82.60
49194;BME280;35029;50.804;12.866;2022-12-18T01:41:48;99128.47;;;-11.37;82.38
49194;BME280;35029;50.804;12.866;2022-12-18T01:47:35;99131.84;;;-11.35;82.86
49194;BME280;35029;50.804;12.866;2022-12-18T01:50:16;99133.66;;;-11.42;82.92
49194;BME280;35029;50.804;12.866;2022-12-18T01:52:46;99139.63;;;-11.41;83.73
49194;BME280;35029;50.804;12.866;2022-12-18T01:55:14;99143.84;;;-11.39;83.09
49194;BME280;35029;50.804;12.866;2022-12-18T01:57:41;99130.31;;;-11.47;82.02
49194;BME280;35029;50.804;12.866;2022-12-18T02:00:11;99130.47;;;-11.56;82.49
49194;BME280;35029;50.804;12.866;2022-12-18T02:02:40;99150.00;;;-11.52;83.27
49194;BME280;35029;50.804;12.866;2022-12-18T02:05:07;99146.63;;;-11.52;83.49
49194;BME280;35029;50.804;12.866;2022-12-18T02:13:38;99146.53;;;-11.48;82.16
49194;BME280;35029;50.804;12.866;2022-12-18T02:16:33;99162.06;;;-11.57;83.08
49194;BME280;35029;50.804;12.866;2022-12-18T02:19:18;99161.22;;;-11.59;82.69
49194;BME280;35029;50.804;12.866;2022-12-18T02:21:55;99162.97;;;-11.61;82.38
49194;BME280;35029;50.804;12.866;2022-12-18T02:25:01;99160.31;;;-11.55;83.03
49194;BME280;35029;50.804;12.866;2022-12-18T02:27:32;99154.38;;;-11.57;83.29
49194;BME280;35029;50.804;12.866;2022-12-18T02:30:01;99157.13;;;-11.69;82.55
49194;BME280;35029;50.804;12.866;2022-12-18T02:32:34;99146.16;;;-11.81;82.76
49194;BME280;35029;50.804;12.866;2022-12-18T02:35:05;99151.22;;;-11.75;83.11
49194;BME280;35029;50.804;12.866;2022-12-18T02:37:35;99146.94;;;-11.74;83.16
49194;BME280;35029;50.804;12.866;2022-12-18T02:40:04;99136.84;;;-11.82;82.67
49194;BME280;35029;50.804;12.866;2022-12-18T02:42:32;99151.19;;;-11.73;83.22
49194;BME280;35029;50.804;12.866;2022-12-18T02:45:00;99142.72;;;-11.78;82.14
49194;BME280;35029;50.804;12.866;2022-12-18T02:47:32;99125.84;;;-11.90;82.38
49194;BME280;35029;50.804;12.866;2022-12-18T02:53:14;99140.28;;;-11.84;83.00
49194;BME280;35029;50.804;12.866;2022-12-18T02:58:42;99139.28;;;-11.76;83.20
49194;BME280;35029;50.804;12.866;2022-12-18T03:04:26;99134.28;;;-11.82;82.63
49194;BME280;35029;50.804;12.866;2022-12-18T03:06:59;99146.09;;;-11.75;82.81
49194;BME280;35029;50.804;12.866;2022-12-18T03:09:39;99146.13;;;-11.76;82.41
49194;BME280;35029;50.804;12.866;2022-12-18T03:12:18;99146.16;;;-11.81;82.77
49194;BME280;35029;50.804;12.866;2022-12-18T03:14:55;99144.50;;;-11.83;82.47
49194;BME280;35029;50.804;12.866;2022-12-18T03:17:26;99147.13;;;-11.88;82.30
49194;BME280;35029;50.804;12.866;2022-12-18T03:19:56;99153.13;;;-11.91;82.19
49194;BME280;35029;50.804;12.866;2022-12-18T03:22:29;99143.84;;;-11.95;82.55
49194;BME280;35029;50.804;12.866;2022-12-18T03:24:58;99128.66;;;-12.07;82.17
49194;BME280;35029;50.804;12.866;2022-12-18T03:27:27;99143.78;;;-11.93;83.02
49194;BME280;35029;50.804;12.866;2022-12-18T03:30:08;99126.91;;;-12.03;82.97
49194;BME280;35029;50.804;12.866;2022-12-18T03:35:22;99159.69;;;-11.69;82.23
49194;BME280;35029;50.804;12.866;2022-12-18T03:37:49;99155.56;;;-11.81;82.38
49194;BME280;35029;50.804;12.866;2022-12-18T03:40:15;99138.72;;;-11.95;82.41
49194;BME280;35029;50.804;12.866;2022-12-18T03:42:51;99158.09;;;-11.80;81.83
49194;BME280;35029;50.804;12.866;2022-12-18T03:45:31;99153.16;;;-11.92;81.52
49194;BME280;35029;50.804;12.866;2022-12-18T03:48:25;99154.91;;;-11.94;82.73
49194;BME280;35029;50.804;12.866;2022-12-18T03:55:55;99161.06;;;-12.08;83.16
49194;BME280;35029;50.804;12.866;2022-12-18T03:58:27;99168.75;;;-12.08;82.52
49194;BME280;35029;50.804;12.866;2022-12-18T04:01:13;99163.66;;;-12.12;83.18
49194;BME280;35029;50.804;12.866;2022-12-18T04:03:44;99165.41;;;-12.14;82.29
49194;BME280;35029;50.804;12.866;2022-12-18T04:06:18;99167.16;;;-12.18;83.18
49194;BME280;35029;50.804;12.866;2022-12-18T04:08:45;99179.13;;;-12.23;83.21
49194;BME280;35029;50.804;12.866;2022-12-18T04:11:15;99179.97;;;-12.21;83.59
49194;BME280;35029;50.804;12.866;2022-12-18T04:13:43;99167.22;;;-12.22;83.26
49194;BME280;35029;50.804;12.866;2022-12-18T04:16:15;99167.19;;;-12.21;82.76
49194;BME280;35029;50.804;12.866;2022-12-18T04:18:45;99172.28;;;-12.19;82.11
49194;BME280;35029;50.804;12.866;2022-12-18T04:21:14;99170.66;;;-12.25;82.28
49194;BME280;35029;50.804;12.866;2022-12-18T04:23:39;99174.00;;;-12.20;82.69
49194;BME280;35029;50.804;12.866;2022-12-18T04:26:06;99172.31;;;-12.21;82.50
49194;BME280;35029;50.804;12.866;2022-12-18T04:28:51;99174.03;;;-12.25;82.22
49194;BME280;35029;50.804;12.866;2022-12-18T04:31:17;99176.56;;;-12.23;82.89
49194;BME280;35029;50.804;12.866;2022-12-18T04:33:43;99177.50;;;-12.29;82.19
49194;BME280;35029;50.804;12.866;2022-12-18T04:36:12;99174.84;;;-12.21;82.76
49194;BME280;35029;50.804;12.866;2022-12-18T04:38:39;99168.22;;;-12.36;82.30
49194;BME280;35029;50.804;12.866;2022-12-18T04:41:09;99162.38;;;-12.46;82.73
49194;BME280;35029;50.804;12.866;2022-12-18T04:43:35;99190.34;;;-12.33;82.89
49194;BME280;35029;50.804;12.866;2022-12-18T04:46:04;99186.09;;;-12.34;82.39
49194;BME280;35029;50.804;12.866;2022-12-18T04:48:31;99181.81;;;-12.35;83.35
49194;BME280;35029;50.804;12.866;2022-12-18T04:50:57;99179.28;;;-12.35;81.96
49194;BME280;35029;50.804;12.866;2022-12-18T04:53:22;99175.03;;;-12.35;83.07
49194;BME280;35029;50.804;12.866;2022-12-18T04:55:48;99145.31;;;-12.45;82.57
49194;BME280;35029;50.804;12.866;2022-12-18T04:58:14;99171.56;;;-12.31;82.23
49194;BME280;35029;50.804;12.866;2022-12-18T05:00:40;99171.59;;;-12.35;82.05
49194;BME280;35029;50.804;12.866;2022-12-18T05:03:08;99155.66;;;-12.56;82.28
49194;BME280;35029;50.804;12.866;2022-12-18T05:05:37;99169.16;;;-12.43;83.24
49194;BME280;35029;50.804;12.866;2022-12-18T05:08:03;99165.88;;;-12.56;81.88
49194;BME280;35029;50.804;12.866;2022-12-18T05:10:28;99176.00;;;-12.48;82.39
49194;BME280;35029;50.804;12.866;2022-12-18T05:12:54;99172.69;;;-12.55;82.14
49194;BME280;35029;50.804;12.866;2022-12-18T05:15:30;99165.03;;;-12.60;82.82
49194;BME280;35029;50.804;12.866;2022-12-18T05:17:57;99186.25;;;-12.53;81.88
49194;BME280;35029;50.804;12.866;2022-12-18T05:20:26;99176.03;;;-12.50;81.73
49194;BME280;35029;50.804;12.866;2022-12-18T05:22:53;99190.53;;;-12.52;81.27
49194;BME280;35029;50.804;12.866;2022-12-18T05:25:19;99195.63;;;-12.52;81.68
49194;BME280;35029;50.804;12.866;2022-12-18T05:27:45;99171.91;;;-12.63;81.30
49194;BME280;35029;50.804;12.866;2022-12-18T05:30:11;99177.84;;;-12.63;80.98
49194;BME280;35029;50.804;12.866;2022-12-18T05:32:37;99194.88;;;-12.62;80.67
49194;BME280;35029;50.804;12.866;2022-12-18T05:35:06;99188.97;;;-12.68;81.03
49194;BME280;35029;50.804;12.866;2022-12-18T05:37:32;99185.59;;;-12.69;81.72
49194;BME280;35029;50.804;12.866;2022-12-18T05:39:57;99164.38;;;-12.79;81.15
49194;BME280;35029;50.804;12.866;2022-12-18T05:42:23;99177.91;;;-12.66;81.89
49194;BME280;35029;50.804;12.866;2022-12-18T05:44:49;99166.16;;;-12.84;81.28
49194;BME280;35029;50.804;12.866;2022-12-18T05:47:14;99178.84;;;-12.76;82.15
49194;BME280;35029;50.804;12.866;2022-12-18T05:49:40;99182.28;;;-12.77;81.97
49194;BME280;35029;50.804;12.866;2022-12-18T05:52:06;99185.53;;;-12.64;82.06
49194;BME280;35029;50.804;12.866;2022-12-18T05:54:33;99180.50;;;-12.70;81.35
49194;BME280;35029;50.804;12.866;2022-12-18T05:56:59;99187.28;;;-12.68;81.52
49194;BME280;35029;50.804;12.866;2022-12-18T05:59:25;99192.44;;;-12.72;81.00
49194;BME280;35029;50.804;12.866;2022-12-18T06:01:50;99197.59;;;-12.80;81.58
49194;BME280;35029;50.804;12.866;2022-12-18T06:04:16;99201.91;;;-12.84;81.65
49194;BME280;35029;50.804;12.866;2022-12-18T06:06:42;99209.53;;;-12.81;81.64
49194;BME280;35029;50.804;12.866;2022-12-18T06:09:08;99219.81;;;-12.85;80.64
49194;BME280;35029;50.804;12.866;2022-12-18T06:11:38;99213.06;;;-12.94;80.90
49194;BME280;35029;50.804;12.866;2022-12-18T06:14:05;99220.66;;;-12.91;81.11
49194;BME280;35029;50.804;12.866;2022-12-18T06:16:31;99230.06;;;-12.93;82.07
49194;BME280;35029;50.804;12.866;2022-12-18T06:19:01;99229.22;;;-12.94;80.97
49194;BME280;35029;50.804;12.866;2022-12-18T06:21:28;99229.16;;;-12.86;81.33
49194;BME280;35029;50.804;12.866;2022-12-18T06:24:03;99228.34;;;-12.93;80.73
49194;BME280;35029;50.804;12.866;2022-12-18T06:26:28;99207.19;;;-13.05;80.79
49194;BME280;35029;50.804;12.866;2022-12-18T06:28:54;99216.53;;;-13.01;81.61
49194;BME280;35029;50.804;12.866;2022-12-18T06:31:20;99193.66;;;-13.18;81.18
49194;BME280;35029;50.804;12.866;2022-12-18T06:33:46;99225.88;;;-13.03;81.51
49194;BME280;35029;50.804;12.866;2022-12-18T06:36:12;99222.50;;;-13.04;82.60
49194;BME280;35029;50.804;12.866;2022-12-18T06:38:40;99227.59;;;-13.02;81.90
49194;BME280;35029;50.804;12.866;2022-12-18T06:41:14;99215.66;;;-12.99;81.99
49194;BME280;35029;50.804;12.866;2022-12-18T06:43:42;99225.03;;;-13.04;81.16
49194;BME280;35029;50.804;12.866;2022-12-18T06:46:08;99229.31;;;-13.07;81.62
49194;BME280;35029;50.804;12.866;2022-12-18T06:48:34;99226.78;;;-13.09;81.74
49194;BME280;35029;50.804;12.866;2022-12-18T06:51:02;99233.59;;;-13.10;81.79
49194;BME280;35029;50.804;12.866;2022-12-18T06:53:28;99241.25;;;-13.10;81.39
49194;BME280;35029;50.804;12.866;2022-12-18T06:56:02;99232.72;;;-13.05;82.13
49194;BME280;35029;50.804;12.866;2022-12-18T06:58:28;99186.06;;;-13.24;81.84
49194;BME280;35029;50.804;12.866;2022-12-18T07:00:59;99220.88;;;-13.16;80.50
49194;BME280;35029;50.804;12.866;2022-12-18T07:03:25;99228.47;;;-13.06;81.14
49194;BME280;35029;50.804;12.866;2022-12-18T07:05:51;99223.38;;;-13.06;80.91
49194;BME280;35029;50.804;12.866;2022-12-18T07:08:17;99225.94;;;-13.08;81.06
49194;BME280;35029;50.804;12.866;2022-12-18T07:10:43;99220.00;;;-13.12;81.21
49194;BME280;35029;50.804;12.866;2022-12-18T07:13:09;99212.28;;;-13.02;80.81
49194;BME280;35029;50.804;12.866;2022-12-18T07:15:36;99197.97;;;-13.22;80.59
49194;BME280;35029;50.804;12.866;2022-12-18T07:18:03;99208.09;;;-13.11;80.90
49194;BME280;35029;50.804;12.866;2022-12-18T07:20:28;99214.09;;;-13.15;80.26
49194;BME280;35029;50.804;12.866;2022-12-18T07:22:54;99222.56;;;-13.13;81.00
49194;BME280;35029;50.804;12.866;2022-12-18T07:25:19;99228.50;;;-13.14;81.36
49194;BME280;35029;50.804;12.866;2022-12-18T07:27:45;99231.03;;;-13.06;81.71
49194;BME280;35029;50.804;12.866;2022-12-18T07:30:11;99239.56;;;-13.11;80.26
49194;BME280;35029;50.804;12.866;2022-12-18T07:32:36;99226.78;;;-13.11;80.09
49194;BME280;35029;50.804;12.866;2022-12-18T07:35:02;99223.41;;;-13.16;79.63
49194;BME280;35029;50.804;12.866;2022-12-18T07:37:28;99241.28;;;-13.16;80.40
49194;BME280;35029;50.804;12.866;2022-12-18T07:39:56;99238.69;;;-13.06;80.85
49194;BME280;35029;50.804;12.866;2022-12-18T07:42:23;99247.09;;;-12.97;80.91
49194;BME280;35029;50.804;12.866;2022-12-18T07:44:59;99222.53;;;-13.09;79.71
49194;BME280;35029;50.804;12.866;2022-12-18T07:47:27;99248.81;;;-12.96;79.54
49194;BME280;35029;50.804;12.866;2022-12-18T07:49:57;99247.06;;;-12.90;80.63
49194;BME280;35029;50.804;12.866;2022-12-18T07:52:22;99248.75;;;-12.86;80.28
49194;BME280;35029;50.804;12.866;2022-12-18T07:54:48;99249.53;;;-12.83;80.34
49194;BME280;35029;50.804;12.866;2022-12-18T07:57:21;99255.47;;;-12.78;80.53
49194;BME280;35029;50.804;12.866;2022-12-18T07:59:51;99254.56;;;-12.70;79.84
49194;BME280;35029;50.804;12.866;2022-12-18T08:02:16;99252.84;;;-12.68;80.32
49194;BME280;35029;50.804;12.866;2022-12-18T08:04:42;99257.91;;;-12.65;80.51
49194;BME280;35029;50.804;12.866;2022-12-18T08:07:09;99251.03;;;-12.57;80.99
49194;BME280;35029;50.804;12.866;2022-12-18T08:09:35;99238.19;;;-12.48;81.99
49194;BME280;35029;50.804;12.866;2022-12-18T08:12:00;99249.97;;;-12.34;81.58
49194;BME280;35029;50.804;12.866;2022-12-18T08:14:27;99253.34;;;-12.31;80.93
49194;BME280;35029;50.804;12.866;2022-12-18T08:16:53;99249.03;;;-12.24;80.11
49194;BME280;35029;50.804;12.866;2022-12-18T08:19:18;99251.44;;;-12.13;81.06
49194;BME280;35029;50.804;12.866;2022-12-18T08:21:44;99261.59;;;-12.05;81.02
49194;BME280;35029;50.804;12.866;2022-12-18T08:24:10;99254.78;;;-12.05;81.06
49194;BME280;35029;50.804;12.866;2022-12-18T08:26:36;99270.78;;;-11.92;81.04
49194;BME280;35029;50.804;12.866;2022-12-18T08:29:02;99276.72;;;-11.90;81.01
49194;BME280;35029;50.804;12.866;2022-12-18T08:31:33;99272.25;;;-11.73;82.17
49194;BME280;35029;50.804;12.866;2022-12-18T08:33:58;99271.31;;;-11.64;81.31
49194;BME280;35029;50.804;12.866;2022-12-18T08:36:24;99267.72;;;-11.52;81.28
49194;BME280;35029;50.804;12.866;2022-12-18T08:38:51;99255.06;;;-11.60;81.38
49194;BME280;35029;50.804;12.866;2022-12-18T08:41:18;99271.94;;;-11.45;82.37
49194;BME280;35029;50.804;12.866;2022-12-18T08:43:44;99273.41;;;-11.28;82.40
49194;BME280;35029;50.804;12.866;2022-12-18T08:46:34;99271.63;;;-11.23;81.75
49194;BME280;35029;50.804;12.866;2022-12-18T08:49:01;99257.81;;;-11.13;82.37
49194;BME280;35029;50.804;12.866;2022-12-18T08:51:28;99253.38;;;-11.00;82.70
49194;BME280;35029;50.804;12.866;2022-12-18T08:53:54;99269.38;;;-10.87;82.35
49194;BME280;35029;50.804;12.866;2022-12-18T08:56:19;99276.88;;;-10.75;82.61
49194;BME280;35029;50.804;12.866;2022-12-18T08:58:45;99277.50;;;-10.60;82.81
49194;BME280;35029;50.804;12.866;2022-12-18T09:01:11;99269.69;;;-10.51;82.81
49194;BME280;35029;50.804;12.866;2022-12-18T09:03:38;99260.13;;;-10.44;83.17
49194;BME280;35029;50.804;12.866;2022-12-18T09:06:04;99271.97;;;-10.35;83.24
49194;BME280;35029;50.804;12.866;2022-12-18T09:08:30;99264.13;;;-10.28;83.63
49194;BME280;35029;50.804;12.866;2022-12-18T09:11:12;99265.47;;;-10.08;84.05
49194;BME280;35029;50.804;12.866;2022-12-18T09:13:38;99272.88;;;-9.94;84.30
49194;BME280;35029;50.804;12.866;2022-12-18T09:16:04;99274.44;;;-9.86;84.40
49194;BME280;35029;50.804;12.866;2022-12-18T09:18:30;99276.81;;;-9.76;84.40
49194;BME280;35029;50.804;12.866;2022-12-18T09:20:55;99280.94;;;-9.68;84.79
49194;BME280;35029;50.804;12.866;2022-12-18T09:23:21;99279.81;;;-9.56;84.81
49194;BME280;35029;50.804;12.866;2022-12-18T09:25:47;99279.59;;;-9.43;85.01
49194;BME280;35029;50.804;12.866;2022-12-18T09:28:14;99287.81;;;-9.29;85.24
49194;BME280;35029;50.804;12.866;2022-12-18T09:30:46;99281.59;;;-9.17;84.99
49194;BME280;35029;50.804;12.866;2022-12-18T09:33:13;99279.56;;;-9.04;85.34
49194;BME280;35029;50.804;12.866;2022-12-18T09:35:40;99267.31;;;-8.91;85.11
49194;BME280;35029;50.804;12.866;2022-12-18T09:38:06;99211.22;;;-9.11;85.15
49194;BME280;35029;50.804;12.866;2022-12-18T09:40:36;99233.72;;;-8.85;85.44
49194;BME280;35029;50.804;12.866;2022-12-18T09:43:06;99255.56;;;-8.65;84.94
49194;BME280;35029;50.804;12.866;2022-12-18T09:45:45;99254.53;;;-8.58;85.22
49194;BME280;35029;50.804;12.866;2022-12-18T09:48:23;99252.63;;;-8.52;85.24
49194;BME280;35029;50.804;12.866;2022-12-18T09:50:57;99238.78;;;-8.46;85.53
49194;BME280;35029;50.804;12.866;2022-12-18T09:53:27;99228.94;;;-8.32;86.07
49194;BME280;35029;50.804;12.866;2022-12-18T09:55:57;99231.06;;;-8.15;86.10
49194;BME280;35029;50.804;12.866;2022-12-18T09:58:31;99224.75;;;-8.03;86.01
49194;BME280;35029;50.804;12.866;2022-12-18T10:00:58;99217.56;;;-7.91;86.62
49194;BME280;35029;50.804;12.866;2022-12-18T10:03:26;99193.50;;;-7.90;86.53
49194;BME280;35029;50.804;12.866;2022-12-18T10:06:06;99218.66;;;-7.69;87.08
49194;BME280;35029;50.804;12.866;2022-12-18T10:08:54;99213.91;;;-7.54;87.23
49194;BME280;35029;50.804;12.866;2022-12-18T10:19:44;99184.97;;;-7.06;87.79
49194;BME280;35029;50.804;12.866;2022-12-18T10:22:19;99192.91;;;-6.85;87.82
49194;BME280;35029;50.804;12.866;2022-12-18T10:25:18;99177.78;;;-6.71;88.67
49194;BME280;35029;50.804;12.866;2022-12-18T10:27:45;99179.00;;;-6.54;89.25
49194;BME280;35029;50.804;12.866;2022-12-18T10:30:19;99174.44;;;-6.48;88.73
49194;BME280;35029;50.804;12.866;2022-12-18T10:32:45;99162.34;;;-6.46;89.16
49194;BME280;35029;50.804;12.866;2022-12-18T10:35:34;99164.47;;;-6.33;89.95
49194;BME280;35029;50.804;12.866;2022-12-18T10:38:04;99169.25;;;-6.22;90.34
49194;BME280;35029;50.804;12.866;2022-12-18T10:40:32;99161.25;;;-6.15;89.81
49194;BME280;35029;50.804;12.866;2022-12-18T10:43:11;99159.88;;;-6.01;90.66
49194;BME280;35029;50.804;12.866;2022-12-18T10:45:37;99160.19;;;-5.87;90.40
49194;BME280;35029;50.804;12.866;2022-12-18T10:48:03;99164.97;;;-5.76;90.29
49194;BME280;35029;50.804;12.866;2022-12-18T10:50:32;99141.00;;;-5.80;90.34
49194;BME280;35029;50.804;12.866;2022-12-18T10:53:01;99141.53;;;-5.71;90.82
49194;BME280;35029;50.804;12.866;2022-12-18T10:55:37;99157.06;;;-5.49;90.41
49194;BME280;35029;50.804;12.866;2022-12-18T11:03:41;99159.41;;;-4.57;94.80
49194;BME280;35029;50.804;12.866;2022-12-18T11:06:17;99149.72;;;-4.52;93.37
49194;BME280;35029;50.804;12.866;2022-12-18T11:08:57;99151.19;;;-4.47;92.40
49194;BME280;35029;50.804;12.866;2022-12-18T11:11:25;99139.00;;;-4.45;91.26
49194;BME280;35029;50.804;12.866;2022-12-18T11:16:34;99139.72;;;-4.41;89.16
49194;BME280;35029;50.804;12.866;2022-12-18T11:21:47;99125.50;;;-4.51;88.29
49194;BME280;35029;50.804;12.866;2022-12-18T11:24:34;99139.81;;;-4.43;87.23
49194;BME280;35029;50.804;12.866;2022-12-18T11:27:02;99141.28;;;-4.37;86.97
49194;BME280;35029;50.804;12.866;2022-12-18T11:29:39;99142.63;;;-4.28;86.95
49194;BME280;35029;50.804;12.866;2022-12-18T11:32:31;99137.44;;;-4.28;85.86
49194;BME280;35029;50.804;12.866;2022-12-18T11:35:09;99141.88;;;-4.11;85.79
49194;BME280;35029;50.804;12.866;2022-12-18T11:37:41;99132.75;;;-3.99;84.85
49194;BME280;35029;50.804;12.866;2022-12-18T11:40:22;99141.75;;;-3.89;84.30
49194;BME280;35029;50.804;12.866;2022-12-18T11:43:08;99132.28;;;-3.90;84.02
49194;BME280;35029;50.804;12.866;2022-12-18T11:45:43;99143.94;;;-3.80;83.58
49194;BME280;35029;50.804;12.866;2022-12-18T11:48:34;99159.81;;;-3.87;83.86
49194;BME280;35029;50.804;12.866;2022-12-18T11:51:05;99167.88;;;-3.94;84.25
49194;BME280;35029;50.804;12.866;2022-12-18T11:53:35;99172.19;;;-3.94;83.81
49194;BME280;35029;50.804;12.866;2022-12-18T12:09:39;99154.38;;;-4.00;80.80
49194;BME280;35029;50.804;12.866;2022-12-18T12:21:02;99171.53;;;-3.98;80.14
49194;BME280;35029;50.804;12.866;2022-12-18T12:35:12;99149.66;;;-3.92;78.03
49194;BME280;35029;50.804;12.866;2022-12-18T12:40:19;99142.47;;;-3.85;77.22
49194;BME280;35029;50.804;12.866;2022-12-18T12:42:56;99149.47;;;-3.87;77.39
49194;BME280;35029;50.804;12.866;2022-12-18T12:45:49;99134.78;;;-3.87;77.11
49194;BME280;35029;50.804;12.866;2022-12-18T12:50:51;99134.06;;;-3.91;77.42
49194;BME280;35029;50.804;12.866;2022-12-18T12:53:31;99136.66;;;-3.91;77.54
49194;BME280;35029;50.804;12.866;2022-12-18T12:55:59;99137.06;;;-3.81;77.03
49194;BME280;35029;50.804;12.866;2022-12-18T12:58:31;99131.53;;;-3.73;76.45
49194;BME280;35029;50.804;12.866;2022-12-18T13:03:57;99130.00;;;-3.58;76.64
49194;BME280;35029;50.804;12.866;2022-12-18T13:06:36;99136.78;;;-3.55;76.44
49194;BME280;35029;50.804;12.866;2022-12-18T13:09:07;99135.09;;;-3.57;76.26
49194;BME280;35029;50.804;12.866;2022-12-18T13:11:40;99134.94;;;-3.53;75.29
49194;BME280;35029;50.804;12.866;2022-12-18T13:14:37;99136.06;;;-3.59;75.38
49194;BME280;35029;50.804;12.866;2022-12-18T13:19:49;99141.09;;;-3.56;74.92
49194;BME280;35029;50.804;12.866;2022-12-18T13:22:28;99144.41;;;-3.52;74.56
49194;BME280;35029;50.804;12.866;2022-12-18T13:24:55;99133.06;;;-3.50;74.66
49194;BME280;35029;50.804;12.866;2022-12-18T13:41:01;99111.94;;;-3.79;74.53
49194;BME280;35029;50.804;12.866;2022-12-18T13:43:34;99114.59;;;-3.80;73.85
49194;BME280;35029;50.804;12.866;2022-12-18T13:46:44;99108.94;;;-3.88;74.35
49194;BME280;35029;50.804;12.866;2022-12-18T13:51:44;99118.25;;;-4.03;74.15
49194;BME280;35029;50.804;12.866;2022-12-18T13:54:37;99123.75;;;-4.11;74.25
49194;BME280;35029;50.804;12.866;2022-12-18T13:57:31;99121.00;;;-4.27;74.97
49194;BME280;35029;50.804;12.866;2022-12-18T14:00:00;99109.56;;;-4.42;74.78
49194;BME280;35029;50.804;12.866;2022-12-18T14:02:45;99112.50;;;-4.50;75.43
49194;BME280;35029;50.804;12.866;2022-12-18T14:05:40;99119.78;;;-4.58;75.36
49194;BME280;35029;50.804;12.866;2022-12-18T14:08:14;99124.38;;;-4.65;75.98
49194;BME280;35029;50.804;12.866;2022-12-18T14:10:41;99107.41;;;-4.72;75.98
49194;BME280;35029;50.804;12.866;2022-12-18T14:13:10;99110.34;;;-4.80;75.83
49194;BME280;35029;50.804;12.866;2022-12-18T14:15:44;99104.69;;;-4.89;76.40
49194;BME280;35029;50.804;12.866;2022-12-18T14:18:36;99111.09;;;-4.98;76.65
49194;BME280;35029;50.804;12.866;2022-12-18T14:21:05;99098.38;;;-5.03;77.15
49194;BME280;35029;50.804;12.866;2022-12-18T14:26:03;99101.00;;;-5.04;76.44
49194;BME280;35029;50.804;12.866;2022-12-18T14:28:29;99095.19;;;-5.10;76.53
49194;BME280;35029;50.804;12.866;2022-12-18T14:30:55;99101.63;;;-5.20;77.38
49194;BME280;35029;50.804;12.866;2022-12-18T14:33:26;99090.81;;;-5.30;77.32
49194;BME280;35029;50.804;12.866;2022-12-18T14:35:59;99091.91;;;-5.35;77.43
49194;BME280;35029;50.804;12.866;2022-12-18T14:41:13;99085.56;;;-5.49;79.05
49194;BME280;35029;50.804;12.866;2022-12-18T14:43:42;99089.22;;;-5.54;78.75
49194;BME280;35029;50.804;12.866;2022-12-18T14:48:56;99090.94;;;-5.55;79.22
49194;BME280;35029;50.804;12.866;2022-12-18T14:51:24;99092.28;;;-5.67;79.40
49194;BME280;35029;50.804;12.866;2022-12-18T14:53:54;99083.88;;;-5.72;79.63
49194;BME280;35029;50.804;12.866;2022-12-18T14:56:32;99091.16;;;-5.82;79.61